createdAt,value
2018-02-20T00:00:10.374Z,61.10
2018-02-20T00:02:40.237Z,60.70
2018-02-20T00:05:09.348Z,59.47
2018-02-20T00:07:38.453Z,53.27
2018-02-20T00:10:07.573Z,54.03
2018-02-20T00:12:38.247Z,63.43
2018-02-20T00:15:07.371Z,57.10
2018-02-20T00:17:36.476Z,52.47
2018-02-20T00:20:05.609Z,63.93
2018-02-20T00:22:34.706Z,56.00
2018-02-20T00:25:04.579Z,60.00
2018-02-20T00:27:33.675Z,55.93
2018-02-20T00:30:02.810Z,54.27
2018-02-20T00:32:31.907Z,55.97
2018-02-20T00:35:01.030Z,55.87
2018-02-20T00:37:30.133Z,56.23
2018-02-20T00:39:59.225Z,55.53
2018-02-20T00:42:28.398Z,59.97
2018-02-20T00:44:58.262Z,53.63
2018-02-20T00:47:27.393Z,57.13
2018-02-20T00:49:57.271Z,50.70
2018-02-20T00:52:27.253Z,54.53
2018-02-20T00:54:56.338Z,55.20
2018-02-20T00:57:26.249Z,53.67
2018-02-20T00:59:56.128Z,61.67
2018-02-20T01:02:25.450Z,62.73
2018-02-20T01:04:55.306Z,53.57
2018-02-20T01:07:24.413Z,55.57
2018-02-20T01:09:53.506Z,61.40
2018-02-20T01:12:22.640Z,47.87
2018-02-20T01:14:51.848Z,51.07
2018-02-20T01:17:20.916Z,51.17
2018-02-20T01:19:50.052Z,50.43
2018-02-20T01:22:19.903Z,55.57
2018-02-20T01:24:49.021Z,52.20
2018-02-20T01:27:18.111Z,48.50
2018-02-20T01:29:48.013Z,53.60
2018-02-20T01:32:17.106Z,56.80
2018-02-20T01:34:46.230Z,56.00
2018-02-20T01:37:15.313Z,68.90
2018-02-20T01:39:44.430Z,52.73
2018-02-20T01:42:13.527Z,60.43
2018-02-20T01:44:42.665Z,56.10
2018-02-20T01:47:11.764Z,56.80
2018-02-20T01:49:40.860Z,61.73
2018-02-20T01:52:09.970Z,54.67
2018-02-20T01:54:39.078Z,49.20
2018-02-20T01:57:08.196Z,51.77
2018-02-20T01:59:37.286Z,53.90
2018-02-20T02:02:06.403Z,51.60
2018-02-20T02:04:36.269Z,51.93
2018-02-20T02:07:05.417Z,52.47
2018-02-20T02:09:34.506Z,50.80
2018-02-20T02:12:03.607Z,52.10
2018-02-20T02:14:32.712Z,53.87
2018-02-20T02:17:02.569Z,52.00
2018-02-20T02:19:31.778Z,54.53
2018-02-20T02:22:00.915Z,57.67
2018-02-20T02:24:30.774Z,58.93
2018-02-20T02:26:59.929Z,47.63
2018-02-20T02:29:29.035Z,61.50
2018-02-20T02:31:58.895Z,52.37
2018-02-20T02:34:28.024Z,52.80
2018-02-20T02:36:57.131Z,49.73
2018-02-20T02:39:27.001Z,50.03
2018-02-20T02:41:56.088Z,56.57
2018-02-20T02:44:25.214Z,54.60
2018-02-20T02:46:54.304Z,47.03
2018-02-20T02:49:23.423Z,52.50
2018-02-20T02:51:52.513Z,52.10
2018-02-20T02:54:21.633Z,53.57
2018-02-20T02:56:51.490Z,55.33
2018-02-20T02:59:20.599Z,54.60
2018-02-20T03:01:49.687Z,50.10
2018-02-20T03:04:18.795Z,51.33
2018-02-20T03:06:47.889Z,52.00
2018-02-20T03:09:16.993Z,50.60
2018-02-20T03:11:46.090Z,53.60
2018-02-20T03:14:15.216Z,53.00
2018-02-20T03:16:45.062Z,51.20
2018-02-20T03:19:14.178Z,63.40
2018-02-20T03:21:43.261Z,60.73
2018-02-20T03:24:12.346Z,72.67
2018-02-20T03:26:41.469Z,49.23
2018-02-20T03:29:10.573Z,57.00
2018-02-20T03:31:39.695Z,49.97
2018-02-20T03:34:09.567Z,59.20
2018-02-20T03:36:38.663Z,54.43
2018-02-20T03:39:07.799Z,55.60
2018-02-20T03:41:36.887Z,54.27
2018-02-20T03:44:06.768Z,58.23
2018-02-20T03:46:37.286Z,62.97
2018-02-20T03:49:06.421Z,59.57
2018-02-20T03:51:35.526Z,61.40
2018-02-20T03:54:04.597Z,55.27
2018-02-20T03:56:33.726Z,62.10
2018-02-20T03:59:03.577Z,55.90
2018-02-20T04:01:32.698Z,53.73
2018-02-20T04:04:01.772Z,56.70
2018-02-20T04:06:30.883Z,55.40
2018-02-20T04:08:59.986Z,58.57
2018-02-20T04:11:29.858Z,52.83
2018-02-20T04:13:59.710Z,63.93
2018-02-20T04:16:28.827Z,56.83
2018-02-20T04:18:57.921Z,62.67
2018-02-20T04:21:27.026Z,57.37
2018-02-20T04:23:56.142Z,54.47
2018-02-20T04:26:26.007Z,57.97
2018-02-20T04:28:55.118Z,64.57
2018-02-20T04:31:24.240Z,54.37
2018-02-20T04:33:53.349Z,61.90
2018-02-20T04:36:23.190Z,59.43
2018-02-20T04:38:52.305Z,54.23
2018-02-20T04:41:22.934Z,56.03
2018-02-20T04:43:52.043Z,54.87
2018-02-20T04:46:21.130Z,58.20
2018-02-20T04:48:50.221Z,59.27
2018-02-20T04:51:19.354Z,55.17
2018-02-20T04:53:48.465Z,56.17
2018-02-20T04:56:17.567Z,61.63
2018-02-20T04:58:47.422Z,61.80
2018-02-20T05:01:16.538Z,65.00
2018-02-20T05:03:45.639Z,59.53
2018-02-20T05:06:14.774Z,65.47
2018-02-20T05:08:43.861Z,70.70
2018-02-20T05:11:12.986Z,66.10
2018-02-20T05:13:42.847Z,54.53
2018-02-20T05:16:11.965Z,65.20
2018-02-20T05:18:41.818Z,56.30
2018-02-20T05:21:10.902Z,70.80
2018-02-20T05:23:41.074Z,58.70
2018-02-20T05:26:10.184Z,50.50
2018-02-20T05:28:40.059Z,70.50
2018-02-20T05:31:09.182Z,62.87
2018-02-20T05:33:38.288Z,62.37
2018-02-20T05:36:08.169Z,54.60
2018-02-20T05:38:37.277Z,58.73
2018-02-20T05:41:06.370Z,56.87
2018-02-20T05:43:35.500Z,57.50
2018-02-20T05:46:05.382Z,54.47
2018-02-20T05:48:34.490Z,59.00
2018-02-20T05:51:03.637Z,58.90
2018-02-20T05:53:32.730Z,66.27
2018-02-20T05:56:02.779Z,60.77
2018-02-20T05:58:31.890Z,70.43
2018-02-20T06:01:01.112Z,57.73
2018-02-20T06:03:30.224Z,58.70
2018-02-20T06:06:00.095Z,63.00
2018-02-20T06:08:29.214Z,58.57
2018-02-20T06:10:59.074Z,65.00
2018-02-20T06:13:28.202Z,57.80
2018-02-20T06:15:57.307Z,65.50
2018-02-20T06:18:26.422Z,70.20
2018-02-20T06:20:56.285Z,62.93
2018-02-20T06:23:26.167Z,64.60
2018-02-20T06:25:56.029Z,56.23
2018-02-20T06:28:25.145Z,58.03
2018-02-20T06:30:54.256Z,60.60
2018-02-20T06:33:24.109Z,73.43
2018-02-20T06:35:53.226Z,59.63
2018-02-20T06:38:22.330Z,60.17
2018-02-20T06:40:51.432Z,56.40
2018-02-20T06:43:20.521Z,62.23
2018-02-20T06:45:49.642Z,64.07
2018-02-20T06:48:18.726Z,70.33
2018-02-20T06:50:47.841Z,63.70
2018-02-20T06:53:17.705Z,65.70
2018-02-20T06:55:46.807Z,64.87
2018-02-20T06:58:15.921Z,60.93
2018-02-20T07:00:45.049Z,58.57
2018-02-20T07:03:14.893Z,68.27
2018-02-20T07:05:44.003Z,57.57
2018-02-20T07:08:13.108Z,70.90
2018-02-20T07:10:42.214Z,61.43
2018-02-20T07:13:11.316Z,57.37
2018-02-20T07:15:40.419Z,56.37
2018-02-20T07:18:09.521Z,63.60
2018-02-20T07:20:38.611Z,65.87
2018-02-20T07:23:07.793Z,56.73
2018-02-20T07:25:36.830Z,56.00
2018-02-20T07:28:06.737Z,63.53
2018-02-20T07:30:36.590Z,65.87
2018-02-20T07:33:05.706Z,71.00
2018-02-20T07:35:34.813Z,64.20
2018-02-20T07:38:04.711Z,66.73
2018-02-20T07:40:33.803Z,63.60
2018-02-20T07:43:02.929Z,74.07
2018-02-20T07:45:32.033Z,64.93
2018-02-20T07:48:01.130Z,76.80
2018-02-20T07:50:30.997Z,63.47
2018-02-20T07:53:00.121Z,62.57
2018-02-20T07:55:29.209Z,62.77
2018-02-20T07:57:58.311Z,65.93
2018-02-20T08:00:27.473Z,53.13
2018-02-20T08:02:56.587Z,67.00
2018-02-20T08:05:25.721Z,70.07
2018-02-20T08:07:54.831Z,61.27
2018-02-20T08:10:24.757Z,55.27
2018-02-20T08:12:54.653Z,55.90
2018-02-20T08:15:23.790Z,52.07
2018-02-20T08:17:53.650Z,61.30
2018-02-20T08:20:22.753Z,58.33
2018-02-20T08:22:51.866Z,60.40
2018-02-20T08:25:21.735Z,53.23
2018-02-20T08:27:50.841Z,60.73
2018-02-20T08:30:19.957Z,54.63
2018-02-20T08:32:49.068Z,53.77
2018-02-20T08:35:18.930Z,53.83
2018-02-20T08:37:48.081Z,47.67
2018-02-20T08:40:17.922Z,49.53
2018-02-20T08:42:47.070Z,59.17
2018-02-20T08:45:16.170Z,53.83
2018-02-20T08:47:45.300Z,56.63
2018-02-20T08:50:15.154Z,57.70
2018-02-20T08:52:44.284Z,49.60
2018-02-20T08:55:13.370Z,54.63
2018-02-20T08:57:42.506Z,49.37
2018-02-20T09:00:12.417Z,56.53
2018-02-20T09:02:41.477Z,49.90
2018-02-20T09:05:10.588Z,51.27
2018-02-20T09:07:40.456Z,47.60
2018-02-20T09:10:10.350Z,52.83
2018-02-20T09:12:39.454Z,51.80
2018-02-20T09:15:08.588Z,53.60
2018-02-20T09:17:37.687Z,51.57
2018-02-20T09:20:06.794Z,53.43
2018-02-20T09:22:35.890Z,52.33
2018-02-20T09:25:05.006Z,48.97
2018-02-20T09:27:34.858Z,54.90
2018-02-20T09:30:03.970Z,55.87
2018-02-20T09:32:33.063Z,56.50
2018-02-20T09:35:02.962Z,50.23
2018-02-20T09:37:32.050Z,56.23
2018-02-20T09:40:01.175Z,51.17
2018-02-20T09:42:30.283Z,61.90
2018-02-20T09:44:59.398Z,50.97
2018-02-20T09:47:29.252Z,55.13
2018-02-20T09:49:58.367Z,58.03
2018-02-20T09:52:27.463Z,52.57
2018-02-20T09:54:56.594Z,51.53
2018-02-20T09:57:25.675Z,50.17
2018-02-20T09:59:54.804Z,47.00
2018-02-20T10:02:24.712Z,51.20
2018-02-20T10:04:53.802Z,48.47
2018-02-20T10:07:23.662Z,50.60
2018-02-20T10:09:52.782Z,51.93
2018-02-20T10:12:21.875Z,50.33
2018-02-20T10:14:50.981Z,56.53
2018-02-20T10:17:20.064Z,51.20
2018-02-20T10:19:49.175Z,53.73
2018-02-20T10:22:18.280Z,47.80
2018-02-20T10:24:47.396Z,47.90
2018-02-20T10:27:17.265Z,48.27
2018-02-20T10:29:46.380Z,44.23
2018-02-20T10:32:15.486Z,41.70
2018-02-20T10:34:44.606Z,44.27
2018-02-20T10:37:14.493Z,50.00
2018-02-20T10:39:43.603Z,44.43
2018-02-20T10:42:13.479Z,43.77
2018-02-20T10:44:42.859Z,45.37
2018-02-20T10:47:11.995Z,50.90
2018-02-20T10:49:41.102Z,44.70
2018-02-20T10:52:10.208Z,57.50
2018-02-20T10:54:39.310Z,52.43
2018-02-20T10:57:09.178Z,44.07
2018-02-20T10:59:38.278Z,41.43
2018-02-20T11:02:07.409Z,45.37
2018-02-20T11:04:36.520Z,56.13
2018-02-20T11:07:06.386Z,41.13
2018-02-20T11:09:35.509Z,50.20
2018-02-20T11:12:04.633Z,38.97
2018-02-20T11:14:33.729Z,39.67
2018-02-20T11:17:02.851Z,42.33
2018-02-20T11:19:31.999Z,45.20
2018-02-20T11:22:01.955Z,46.23
2018-02-20T11:24:31.015Z,47.77
2018-02-20T11:27:00.894Z,52.33
2018-02-20T11:29:29.993Z,45.37
2018-02-20T11:31:59.123Z,42.87
2018-02-20T11:34:28.219Z,50.80
2018-02-20T11:36:57.333Z,50.27
2018-02-20T11:39:27.194Z,50.37
2018-02-20T11:41:56.318Z,43.87
2018-02-20T11:44:26.210Z,40.97
2018-02-20T11:46:56.104Z,42.53
2018-02-20T11:49:25.225Z,47.40
2018-02-20T11:51:54.326Z,49.13
2018-02-20T11:54:23.458Z,45.33
2018-02-20T11:56:53.330Z,40.97
2018-02-20T11:59:23.220Z,52.40
2018-02-20T12:01:52.313Z,43.90
2018-02-20T12:04:22.191Z,42.10
2018-02-20T12:06:51.319Z,40.40
2018-02-20T12:09:20.411Z,47.97
2018-02-20T12:11:49.552Z,48.47
2018-02-20T12:14:18.675Z,47.10
2018-02-20T12:16:48.542Z,42.73
2018-02-20T12:19:18.443Z,49.23
2018-02-20T12:21:49.026Z,46.10
2018-02-20T12:24:18.132Z,59.03
2018-02-20T12:26:47.249Z,47.93
2018-02-20T12:29:16.374Z,46.40
2018-02-20T12:31:45.503Z,55.60
2018-02-20T12:34:15.354Z,55.93
2018-02-20T12:36:44.460Z,47.07
2018-02-20T12:39:13.572Z,54.13
2018-02-20T12:41:42.659Z,45.93
2018-02-20T12:44:11.778Z,43.80
2018-02-20T12:46:41.678Z,49.17
2018-02-20T12:49:10.774Z,57.93
2018-02-20T12:51:39.884Z,48.77
2018-02-20T12:54:09.798Z,42.33
2018-02-20T12:56:39.801Z,44.83
2018-02-20T12:59:08.820Z,48.63
2018-02-20T13:01:38.672Z,43.03
2018-02-20T13:04:07.768Z,50.33
2018-02-20T13:06:36.922Z,55.67
2018-02-20T13:09:06.800Z,49.80
2018-02-20T13:11:36.678Z,53.40
2018-02-20T13:14:05.794Z,52.47
2018-02-20T13:16:34.903Z,55.07
2018-02-20T13:19:04.004Z,54.73
2018-02-20T13:21:33.098Z,46.43
2018-02-20T13:24:02.199Z,44.80
2018-02-20T13:26:31.318Z,44.47
2018-02-20T13:29:01.214Z,53.53
2018-02-20T13:31:30.318Z,49.17
2018-02-20T13:33:59.431Z,45.50
2018-02-20T13:36:28.531Z,53.20
2018-02-20T13:38:58.424Z,62.20
2018-02-20T13:41:27.551Z,55.90
2018-02-20T13:43:56.658Z,57.70
2018-02-20T13:46:25.793Z,52.23
2018-02-20T13:48:54.902Z,60.47
2018-02-20T13:51:24.038Z,52.70
2018-02-20T13:53:53.144Z,55.73
2018-02-20T13:56:22.230Z,55.80
2018-02-20T13:58:51.375Z,59.60
2018-02-20T14:01:20.510Z,71.33
2018-02-20T14:03:50.402Z,55.67
2018-02-20T14:06:19.516Z,62.33
2018-02-20T14:08:49.397Z,53.73
2018-02-20T14:11:18.502Z,53.60
2018-02-20T14:13:47.606Z,63.13
2018-02-20T14:16:16.704Z,58.60
2018-02-20T14:18:45.826Z,60.83
2018-02-20T14:21:15.701Z,48.53
2018-02-20T14:23:44.818Z,49.33
2018-02-20T14:26:14.703Z,59.07
2018-02-20T14:28:44.612Z,59.10
2018-02-20T14:31:13.718Z,47.23
2018-02-20T14:33:42.848Z,46.40
2018-02-20T14:36:11.948Z,48.80
2018-02-20T14:38:42.656Z,46.40
2018-02-20T14:41:11.751Z,60.57
2018-02-20T14:43:40.900Z,47.97
2018-02-20T14:46:10.007Z,48.57
2018-02-20T14:48:39.112Z,52.67
2018-02-20T14:51:08.234Z,48.43
2018-02-20T14:53:37.352Z,54.93
2018-02-20T14:56:06.454Z,48.07
2018-02-20T14:58:36.347Z,42.90
2018-02-20T15:01:05.469Z,42.03
2018-02-20T15:03:35.333Z,43.73
2018-02-20T15:06:04.454Z,51.23
2018-02-20T15:08:33.542Z,47.63
2018-02-20T15:11:02.685Z,49.10
2018-02-20T15:13:31.782Z,49.97
2018-02-20T15:16:00.898Z,44.93
2018-02-20T15:18:30.003Z,46.83
2018-02-20T15:20:59.111Z,43.47
2018-02-20T15:23:28.236Z,45.17
2018-02-20T15:25:57.334Z,45.53
2018-02-20T15:28:26.478Z,48.90
2018-02-20T15:30:55.571Z,46.03
2018-02-20T15:33:24.678Z,37.80
2018-02-20T15:35:53.784Z,45.00
2018-02-20T15:38:23.682Z,46.10
2018-02-20T15:40:52.817Z,44.80
2018-02-20T15:43:21.944Z,43.10
2018-02-20T15:45:51.811Z,43.70
2018-02-20T15:48:20.937Z,41.00
2018-02-20T15:50:50.814Z,40.40
2018-02-20T15:53:20.728Z,40.73
2018-02-20T15:55:50.579Z,42.93
2018-02-20T15:58:19.750Z,41.83
2018-02-20T16:00:48.827Z,41.73
2018-02-20T16:03:17.940Z,41.27
2018-02-20T16:05:47.074Z,45.00
2018-02-20T16:08:16.977Z,40.20
2018-02-20T16:10:46.867Z,45.17
2018-02-20T16:13:16.000Z,42.47
2018-02-20T16:15:51.321Z,42.40
2018-02-20T16:18:20.475Z,47.20
2018-02-20T16:20:49.583Z,43.80
2018-02-20T16:23:18.703Z,44.20
2018-02-20T16:25:47.841Z,42.83
2018-02-20T16:28:17.704Z,45.57
2018-02-20T16:30:46.822Z,48.00
2018-02-20T16:33:16.044Z,47.90
2018-02-20T16:35:45.963Z,45.87
2018-02-20T16:38:15.849Z,46.63
2018-02-20T16:40:44.972Z,45.83
2018-02-20T16:43:14.824Z,46.30
2018-02-20T16:45:43.939Z,53.50
2018-02-20T16:48:13.075Z,56.67
2018-02-20T16:50:42.213Z,53.73
2018-02-20T16:53:11.363Z,62.30
2018-02-20T16:55:41.246Z,54.37
2018-02-20T16:58:10.362Z,61.00
2018-02-20T17:00:39.492Z,67.30
2018-02-20T17:03:08.603Z,63.93
2018-02-20T17:05:37.756Z,59.60
2018-02-20T17:08:06.859Z,61.63
2018-02-20T17:10:36.727Z,66.03
2018-02-20T17:13:05.848Z,70.53
2018-02-20T17:15:35.024Z,62.20
2018-02-20T17:18:04.225Z,62.63
2018-02-20T17:20:33.304Z,60.17
2018-02-20T17:23:02.490Z,69.57
2018-02-20T17:25:31.619Z,58.30
2018-02-20T17:28:00.750Z,61.33
2018-02-20T17:30:29.840Z,65.40
2018-02-20T17:32:58.994Z,63.37
2018-02-20T17:35:28.097Z,68.00
2018-02-20T17:38:00.703Z,60.67
2018-02-20T17:40:27.109Z,60.27
2018-02-20T17:42:56.237Z,65.50
2018-02-20T17:45:25.343Z,62.80
2018-02-20T17:47:55.239Z,57.77
2018-02-20T17:50:24.940Z,61.93
2018-02-20T17:52:54.073Z,61.37
2018-02-20T17:55:23.959Z,57.40
2018-02-20T17:57:53.091Z,53.90
2018-02-20T18:00:23.080Z,55.90
2018-02-20T18:02:52.195Z,60.57
2018-02-20T18:05:22.079Z,57.07
2018-02-20T18:07:51.215Z,59.70
2018-02-20T18:10:21.108Z,60.43
2018-02-20T18:12:50.994Z,66.67
2018-02-20T18:15:20.104Z,71.23
2018-02-20T18:17:49.203Z,59.47
2018-02-20T18:20:18.355Z,60.17
2018-02-20T18:22:47.525Z,63.60
2018-02-20T18:25:16.621Z,60.07
2018-02-20T18:27:45.750Z,65.80
2018-02-20T18:30:14.876Z,67.90
2018-02-20T18:32:44.002Z,62.20
2018-02-20T18:35:13.936Z,79.20
2018-02-20T18:37:43.051Z,69.50
2018-02-20T18:40:12.173Z,58.97
2018-02-20T18:42:41.300Z,71.40
2018-02-20T18:45:10.389Z,67.43
2018-02-20T18:47:39.509Z,68.53
2018-02-20T18:50:09.376Z,72.93
2018-02-20T18:52:38.535Z,62.37
2018-02-20T18:55:07.637Z,71.63
2018-02-20T18:57:36.780Z,67.83
2018-02-20T19:00:05.875Z,65.27
2018-02-20T19:02:35.011Z,63.70
2018-02-20T19:05:04.143Z,59.87
2018-02-20T19:07:33.258Z,69.63
2018-02-20T19:10:02.366Z,72.83
2018-02-20T19:12:31.530Z,68.70
2018-02-20T19:15:00.654Z,67.90
2018-02-20T19:17:29.775Z,63.07
2018-02-20T19:19:59.661Z,74.40
2018-02-20T19:22:28.790Z,70.03
2018-02-20T19:24:58.661Z,69.70
2018-02-20T19:27:27.774Z,67.30
2018-02-20T19:29:56.887Z,75.70
2018-02-20T19:32:26.644Z,74.40
2018-02-20T19:34:55.766Z,73.90
2018-02-20T19:37:24.908Z,83.33
2018-02-20T19:39:54.763Z,80.17
2018-02-20T19:42:24.669Z,72.60
2018-02-20T19:44:53.792Z,67.10
2018-02-20T19:47:22.935Z,64.27
2018-02-20T19:49:52.815Z,72.13
2018-02-20T19:52:21.939Z,66.20
2018-02-20T19:54:51.075Z,67.53
2018-02-20T19:57:20.985Z,74.20
2018-02-20T19:59:50.103Z,66.13
2018-02-20T20:02:19.208Z,77.73
2018-02-20T20:04:48.348Z,72.47
2018-02-20T20:07:17.464Z,72.00
2018-02-20T20:09:46.558Z,69.57
2018-02-20T20:12:15.694Z,71.10
2018-02-20T20:14:44.822Z,76.00
2018-02-20T20:17:13.969Z,77.70
2018-02-20T20:19:43.086Z,73.77
2018-02-20T20:22:12.295Z,76.60
2018-02-20T20:24:41.374Z,69.97
2018-02-20T20:27:10.496Z,72.33
2018-02-20T20:29:40.396Z,74.73
2018-02-20T20:32:09.528Z,68.60
2018-02-20T20:34:39.407Z,68.13
2018-02-20T20:37:08.545Z,76.27
2018-02-20T20:39:37.703Z,78.37
2018-02-20T20:42:06.819Z,69.50
2018-02-20T20:44:36.728Z,73.07
2018-02-20T20:47:06.633Z,77.97
2018-02-20T20:49:35.752Z,75.30
2018-02-20T20:52:05.652Z,71.67
2018-02-20T20:54:35.531Z,72.97
2018-02-20T20:57:04.639Z,81.70
2018-02-20T20:59:33.782Z,76.73
2018-02-20T21:02:02.955Z,64.90
2018-02-20T21:04:32.090Z,65.57
2018-02-20T21:07:01.230Z,66.10
2018-02-20T21:09:30.654Z,70.03
2018-02-20T21:12:01.090Z,75.10
2018-02-20T21:14:30.991Z,69.77
2018-02-20T21:17:00.149Z,65.27
2018-02-20T21:19:29.276Z,77.77
2018-02-20T21:21:58.397Z,79.03
2018-02-20T21:24:28.288Z,70.83
2018-02-20T21:26:57.447Z,73.90
2018-02-20T21:29:26.544Z,77.10
2018-02-20T21:31:55.671Z,75.20
2018-02-20T21:34:24.801Z,67.03
2018-02-20T21:36:53.946Z,76.33
2018-02-20T21:39:23.798Z,74.17
2018-02-20T21:41:52.918Z,71.13
2018-02-20T21:44:22.008Z,74.67
2018-02-20T21:46:51.913Z,64.80
2018-02-20T21:49:21.787Z,79.07
2018-02-20T21:51:50.923Z,75.27
2018-02-20T21:54:20.806Z,80.43
2018-02-20T21:56:49.927Z,75.13
2018-02-20T21:59:19.811Z,80.23
2018-02-20T22:01:48.953Z,68.57
2018-02-20T22:04:18.852Z,72.57
2018-02-20T22:06:47.963Z,72.30
2018-02-20T22:09:17.095Z,87.97
2018-02-20T22:11:46.216Z,91.90
2018-02-20T22:14:15.344Z,110.53
2018-02-20T22:16:45.219Z,82.10
2018-02-20T22:19:14.349Z,84.07
2018-02-20T22:21:44.195Z,88.40
2018-02-20T22:24:13.321Z,80.23
2018-02-20T22:26:42.415Z,74.20
2018-02-20T22:29:11.540Z,81.13
2018-02-20T22:31:40.638Z,82.30
2018-02-20T22:34:09.753Z,76.33
2018-02-20T22:36:38.854Z,79.90
2018-02-20T22:39:07.973Z,88.03
2018-02-20T22:41:37.092Z,79.30
2018-02-20T22:44:06.990Z,81.93
2018-02-20T22:46:36.094Z,81.33
2018-02-20T22:49:05.210Z,77.07
2018-02-20T22:51:34.337Z,69.97
2018-02-20T22:54:04.202Z,83.07
2018-02-20T22:56:33.309Z,83.97
2018-02-20T22:59:02.434Z,73.07
2018-02-20T23:01:31.564Z,77.00
2018-02-20T23:04:00.676Z,77.80
2018-02-20T23:06:29.799Z,76.03
2018-02-20T23:08:58.900Z,74.33
2018-02-20T23:11:45.735Z,74.80
2018-02-20T23:14:15.616Z,78.53
2018-02-20T23:16:44.758Z,88.20
2018-02-20T23:19:14.642Z,81.97
2018-02-20T23:21:44.677Z,73.87
2018-02-20T23:24:13.796Z,89.20
2018-02-20T23:26:43.683Z,75.90
2018-02-20T23:29:12.790Z,82.67
2018-02-20T23:31:41.935Z,76.30
2018-02-20T23:34:11.035Z,83.87
2018-02-20T23:36:40.186Z,81.27
2018-02-20T23:39:10.056Z,75.53
2018-02-20T23:41:39.922Z,70.30
2018-02-20T23:44:09.066Z,73.80
2018-02-20T23:46:38.167Z,81.13
2018-02-20T23:49:08.091Z,72.27
2018-02-20T23:51:37.198Z,83.17
2018-02-20T23:54:06.315Z,78.83
2018-02-20T23:56:35.422Z,82.17
2018-02-20T23:59:04.551Z,74.33
